Time;durP1;ratioP1;P1;durP2;ratioP2;P2;SDS_P1;SDS_P2;PMS_P1;PMS_P2;Temp;Humidity;BMP_temperature;BMP_pressure;BME280_temperature;BME280_humidity;BME280_pressure;Samples;Min_cycle;Max_cycle;Signal;HPM_P1;HPM_P2
2021/11/10 00:01:57;;;;;;;;;48.00;37.25;;;;;5.68;65.28;101724.50;5076655;28;56380;-61
2021/11/10 00:04:23;;;;;;;;;41.25;36.50;;;;;5.67;65.08;101728.03;5076430;28;60950;-61
2021/11/10 00:06:48;;;;;;;;;42.50;35.50;;;;;5.67;64.61;101724.56;5075860;28;45414;-61
2021/11/10 00:09:14;;;;;;;;;39.50;35.25;;;;;5.63;64.82;101719.50;5077261;28;45545;-61
2021/11/10 00:11:39;;;;;;;;;40.50;33.50;;;;;5.60;64.65;101716.22;5076617;28;54225;-61
2021/11/10 00:14:05;;;;;;;;;41.75;35.25;;;;;5.61;64.92;101710.06;5076846;27;45376;-61
2021/11/10 00:16:30;;;;;;;;;42.25;34.75;;;;;5.61;65.01;101712.69;5075951;28;67609;-61
2021/11/10 00:18:56;;;;;;;;;44.75;35.00;;;;;5.61;64.69;101717.91;5077045;28;45611;-61
2021/11/10 00:21:24;;;;;;;;;38.00;32.00;;;;;5.60;64.58;101730.06;5076993;27;45346;-62
2021/11/10 00:23:50;;;;;;;;;36.25;32.50;;;;;5.58;64.50;101716.28;5076697;28;45365;-61
2021/11/10 00:26:15;;;;;;;;;42.75;33.50;;;;;5.55;64.60;101690.38;5058492;28;45331;-61
2021/11/10 00:28:41;;;;;;;;;38.75;32.00;;;;;5.54;64.06;101683.47;5076205;28;57944;-60
2021/11/10 00:31:07;;;;;;;;;44.25;35.75;;;;;5.52;64.43;101685.31;5075991;28;65844;-61
2021/11/10 00:33:32;;;;;;;;;41.00;33.25;;;;;5.49;64.71;101699.31;5074536;28;46291;-62
2021/11/10 00:35:57;;;;;;;;;46.25;34.75;;;;;5.46;65.03;101698.63;5076643;28;45318;-62
2021/11/10 00:38:23;;;;;;;;;46.50;35.00;;;;;5.44;65.41;101698.69;5075714;28;45360;-61
2021/11/10 00:40:48;;;;;;;;;43.50;34.75;;;;;5.44;65.88;101703.91;5075795;28;67484;-61
2021/11/10 00:43:14;;;;;;;;;46.75;36.50;;;;;5.45;65.97;101691.75;5075536;28;72744;-61
2021/11/10 00:45:39;;;;;;;;;46.00;37.50;;;;;5.44;65.77;101683.06;5076764;28;45237;-61
2021/11/10 00:48:05;;;;;;;;;40.75;36.00;;;;;5.42;65.40;101687.50;5076696;28;45213;-62
2021/11/10 00:50:31;;;;;;;;;34.75;31.50;;;;;5.42;65.22;101687.50;5076349;28;50495;-61
2021/11/10 00:52:56;;;;;;;;;34.50;30.75;;;;;5.42;65.44;101678.84;5076332;28;47209;-61
2021/11/10 00:55:21;;;;;;;;;40.50;35.00;;;;;5.39;65.39;101674.59;5075344;28;45375;-61
2021/11/10 00:57:47;;;;;;;;;41.00;35.00;;;;;5.39;65.05;101681.59;5075618;28;65534;-60
2021/11/10 01:00:12;;;;;;;;;43.50;36.00;;;;;5.39;65.16;101674.59;5076029;28;55105;-61
2021/11/10 01:02:38;;;;;;;;;55.75;41.00;;;;;5.38;65.11;101672.91;5076243;28;45758;-62
2021/11/10 01:05:03;;;;;;;;;41.75;33.25;;;;;5.38;64.88;101662.50;5075997;28;53271;-61
2021/11/10 01:07:29;;;;;;;;;37.00;31.75;;;;;5.35;64.97;101653.06;5076553;28;45431;-61
2021/11/10 01:09:58;;;;;;;;;35.00;30.25;;;;;5.34;65.57;101654.00;5075887;28;60068;-61
2021/11/10 01:12:24;;;;;;;;;37.50;33.25;;;;;5.35;65.86;101657.44;5076275;28;46434;-61
2021/11/10 01:14:49;;;;;;;;;59.25;45.00;;;;;5.34;66.15;101650.53;5075312;28;66997;-61
2021/11/10 01:17:14;;;;;;;;;51.00;38.75;;;;;5.33;65.82;101648.84;5057434;28;58069;-61
2021/11/10 01:19:40;;;;;;;;;43.25;36.25;;;;;5.30;65.93;101649.03;5075995;28;46434;-60
2021/11/10 01:22:05;;;;;;;;;43.75;34.25;;;;;5.25;66.60;101654.44;5075357;28;67863;-60
2021/11/10 01:24:31;;;;;;;;;40.25;28.25;;;;;5.22;66.93;101651.16;5075443;28;64020;-61
2021/11/10 01:26:56;;;;;;;;;42.75;30.75;;;;;5.18;66.89;101653.03;5074656;27;45271;-61
2021/11/10 01:29:22;;;;;;;;;37.50;33.50;;;;;5.15;67.17;101650.56;5075151;28;68584;-61
2021/11/10 01:31:47;;;;;;;;;44.50;36.75;;;;;5.14;67.04;101644.53;5073703;27;68818;-61
2021/11/10 01:34:12;;;;;;;;;37.50;32.00;;;;;5.13;66.73;101642.84;5074946;28;68113;-61
2021/11/10 01:36:38;;;;;;;;;45.25;36.25;;;;;5.13;66.83;101642.84;5075188;28;63222;-61
2021/11/10 01:39:04;;;;;;;;;49.00;37.75;;;;;5.12;66.49;101641.16;5074750;28;45514;-60
2021/11/10 01:41:30;;;;;;;;;44.75;36.00;;;;;5.12;66.43;101651.56;5075589;28;46471;-61
2021/11/10 01:43:56;;;;;;;;;54.75;40.75;;;;;5.14;66.46;101660.16;5076189;28;45828;-61
2021/11/10 01:46:21;;;;;;;;;47.75;38.75;;;;;5.15;66.50;101646.22;5078553;28;61235;-61
2021/11/10 01:48:47;;;;;;;;;47.25;38.00;;;;;5.15;66.34;101643.63;5078921;28;45362;-61
2021/11/10 01:51:12;;;;;;;;;55.50;38.75;;;;;5.15;66.16;101642.75;5078446;27;74028;-62
2021/11/10 01:53:38;;;;;;;;;49.75;38.25;;;;;5.14;66.34;101654.09;5079222;28;45444;-61
2021/11/10 01:56:03;;;;;;;;;53.00;41.75;;;;;5.13;66.37;101668.03;5079315;28;45326;-61
2021/11/10 01:58:29;;;;;;;;;56.75;43.00;;;;;5.13;66.23;101663.69;5077308;28;45680;-61
2021/11/10 02:00:54;;;;;;;;;57.50;44.00;;;;;5.14;66.00;101667.97;5079078;27;45336;-61
2021/11/10 02:03:20;;;;;;;;;48.25;41.25;;;;;5.14;65.92;101670.59;5079123;28;45356;-61
2021/11/10 02:05:45;;;;;;;;;46.50;37.75;;;;;5.14;66.02;101675.81;5079106;28;45361;-61
2021/11/10 02:08:10;;;;;;;;;50.75;35.25;;;;;5.12;66.28;101675.03;5077335;27;56233;-62
2021/11/10 02:10:36;;;;;;;;;42.75;36.25;;;;;5.09;65.61;101676.91;5078853;28;50609;-61
2021/11/10 02:13:03;;;;;;;;;45.00;36.50;;;;;5.03;65.36;101663.25;5077935;28;70204;-61
2021/11/10 02:15:29;;;;;;;;;48.50;37.50;;;;;4.99;65.43;101655.69;5077828;28;45247;-61
2021/11/10 02:17:55;;;;;;;;;36.00;32.50;;;;;4.98;65.53;101654.84;5078974;27;45211;-61
2021/11/10 02:20:21;;;;;;;;;48.00;38.75;;;;;4.97;65.36;101642.75;5078525;28;47454;-61
2021/11/10 02:22:49;;;;;;;;;44.50;39.25;;;;;4.97;65.51;101647.09;5078579;27;46193;-61
2021/11/10 02:25:14;;;;;;;;;54.25;39.00;;;;;4.97;65.66;101647.09;5078800;28;45262;-61
2021/11/10 02:27:40;;;;;;;;;42.25;36.00;;;;;4.96;65.46;101653.22;5078848;28;45374;-62
2021/11/10 02:30:10;;;;;;;;;43.75;38.00;;;;;4.91;65.34;101645.63;5078591;28;46231;-61
2021/11/10 02:32:35;;;;;;;;;39.50;36.50;;;;;4.87;65.08;101644.91;5078550;27;45799;-61
2021/11/10 02:35:00;;;;;;;;;42.50;33.50;;;;;4.82;64.81;101631.25;5078644;28;45359;-61
2021/11/10 02:37:26;;;;;;;;;45.50;36.50;;;;;4.77;64.83;101628.00;5077730;28;64882;-61
2021/11/10 02:39:51;;;;;;;;;42.50;33.50;;;;;4.73;64.71;101622.13;5078111;28;60687;-61
2021/11/10 02:42:18;;;;;;;;;39.50;33.50;;;;;4.74;64.96;101609.97;5077211;27;45415;-61
2021/11/10 02:44:45;;;;;;;;;39.00;31.25;;;;;4.76;65.27;101613.34;5077337;27;45300;-61
2021/11/10 02:47:11;;;;;;;;;31.75;28.00;;;;;4.77;65.46;101612.41;5077560;28;45264;-61
2021/11/10 02:49:36;;;;;;;;;32.00;27.50;;;;;4.79;65.47;101609.72;5058823;28;67078;-61
2021/11/10 02:52:10;;;;;;;;;39.75;34.75;;;;;4.75;64.82;101603.84;5077005;27;45266;-61
2021/11/10 02:54:44;;;;;;;;;41.00;31.75;;;;;4.70;64.54;101611.84;5078463;27;45367;-61
2021/11/10 02:57:09;;;;;;;;;42.75;35.75;;;;;4.68;64.76;101608.47;5077499;28;45362;-61
2021/11/10 02:59:35;;;;;;;;;43.25;36.50;;;;;4.68;64.71;101610.25;5077865;28;54965;-61
2021/11/10 03:02:01;;;;;;;;;45.25;35.75;;;;;4.69;64.47;101610.16;5078169;28;45763;-61
2021/11/10 03:04:29;;;;;;;;;34.00;31.50;;;;;4.71;64.67;101612.72;5078227;28;45208;-61
2021/11/10 03:06:54;;;;;;;;;37.00;31.50;;;;;4.69;65.30;101620.56;5078436;28;45424;-61
2021/11/10 03:09:21;;;;;;;;;41.75;31.25;;;;;4.68;65.09;101626.69;5076406;28;55204;-61
2021/11/10 03:11:47;;;;;;;;;39.25;34.00;;;;;4.66;64.47;101614.69;5078007;28;45731;-61
2021/11/10 03:14:12;;;;;;;;;45.75;36.25;;;;;4.60;64.23;101623.59;5077962;28;45491;-61
2021/11/10 03:16:37;;;;;;;;;38.25;35.00;;;;;4.52;64.20;101629.16;5078067;28;45457;-62
2021/11/10 03:19:03;;;;;;;;;46.25;34.50;;;;;4.41;64.01;101616.63;5077662;28;52062;-62
2021/11/10 03:21:28;;;;;;;;;32.25;30.00;;;;;4.35;64.18;101618.66;5076866;28;69790;-61
2021/11/10 03:23:54;;;;;;;;;35.50;31.00;;;;;4.28;63.93;101618.94;5076687;28;45437;-61
2021/11/10 03:26:20;;;;;;;;;42.75;36.25;;;;;4.24;64.34;101617.38;5077055;27;59750;-61
2021/11/10 03:28:45;;;;;;;;;47.50;36.25;;;;;4.22;64.42;101624.44;5077731;28;46452;-61
2021/11/10 03:31:11;;;;;;;;;42.00;36.25;;;;;4.16;64.84;101622.94;5077805;28;45369;-61
2021/11/10 03:33:36;;;;;;;;;42.75;34.25;;;;;4.12;64.67;101625.75;5076750;28;63990;-61
2021/11/10 03:36:02;;;;;;;;;56.25;45.50;;;;;4.11;64.85;101626.66;5075517;27;62446;-61
2021/11/10 03:38:27;;;;;;;;;48.00;36.25;;;;;4.10;65.33;101636.19;5077391;28;47297;-61
2021/11/10 03:40:52;;;;;;;;;46.50;38.00;;;;;4.09;65.36;101638.88;5076716;28;69258;-61
2021/11/10 03:43:18;;;;;;;;;51.75;39.00;;;;;4.06;66.10;101632.03;5076692;28;66552;-61
2021/11/10 03:45:44;;;;;;;;;53.50;39.00;;;;;4.04;66.25;101620.84;5076666;28;68600;-61
2021/11/10 03:48:11;;;;;;;;;51.00;39.25;;;;;4.06;66.33;101626.84;5077364;28;45366;-62
2021/11/10 03:50:36;;;;;;;;;49.00;39.50;;;;;4.06;66.36;101626.84;5076227;27;45317;-60
2021/11/10 03:53:01;;;;;;;;;53.50;40.50;;;;;4.07;66.13;101630.28;5076832;28;61393;-61
2021/11/10 03:55:35;;;;;;;;;57.00;41.75;;;;;4.09;66.54;101633.69;5077279;28;45302;-61
2021/11/10 03:58:00;;;;;;;;;50.00;39.00;;;;;4.09;66.04;101626.69;5077145;28;46089;-62
2021/11/10 04:00:25;;;;;;;;;40.50;35.50;;;;;4.10;66.36;101630.16;5076439;28;68225;-61
2021/11/10 04:02:51;;;;;;;;;43.50;36.00;;;;;4.11;66.61;101631.84;5076700;28;57538;-61
2021/11/10 04:05:16;;;;;;;;;53.50;39.00;;;;;4.13;66.78;101630.03;5076519;28;65055;-61
2021/11/10 04:07:41;;;;;;;;;55.75;39.50;;;;;4.14;66.62;101632.56;5075056;28;73939;-61
2021/11/10 04:10:07;;;;;;;;;48.50;40.25;;;;;4.18;66.41;101648.03;5076292;27;68365;-61
2021/11/10 04:12:33;;;;;;;;;52.00;38.75;;;;;4.16;65.94;101648.94;5077151;28;45378;-61
2021/11/10 04:14:58;;;;;;;;;45.75;38.00;;;;;4.11;66.30;101653.50;5076192;28;67695;-61
2021/11/10 04:17:23;;;;;;;;;48.75;37.00;;;;;4.09;66.49;101668.31;5076195;28;66882;-61
2021/11/10 04:19:49;;;;;;;;;46.00;38.00;;;;;4.07;66.16;101687.50;5076330;28;65179;-61
2021/11/10 04:22:14;;;;;;;;;42.75;37.50;;;;;4.03;65.84;101684.19;5076203;27;67684;-61
2021/11/10 04:24:40;;;;;;;;;47.50;39.00;;;;;4.00;66.00;101674.78;5076981;28;45510;-61
2021/11/10 04:27:05;;;;;;;;;50.50;39.00;;;;;3.96;65.83;101675.81;5075917;27;63316;-61
2021/11/10 04:29:31;;;;;;;;;41.75;36.00;;;;;3.94;65.70;101682.00;5076752;27;45185;-61
2021/11/10 04:31:56;;;;;;;;;41.50;36.25;;;;;3.91;65.84;101676.94;5076875;28;45227;-61
2021/11/10 04:34:21;;;;;;;;;43.75;36.00;;;;;3.89;65.65;101681.34;5077144;28;45234;-61
2021/11/10 04:36:48;;;;;;;;;48.00;36.25;;;;;3.86;65.69;101682.31;5075612;27;72871;-61
2021/11/10 04:39:13;;;;;;;;;43.00;35.25;;;;;3.82;65.30;101672.94;5058606;28;45427;-60
2021/11/10 04:41:38;;;;;;;;;49.75;37.50;;;;;3.78;65.46;101666.16;5076090;28;59893;-61
2021/11/10 04:44:04;;;;;;;;;45.25;36.50;;;;;3.77;65.27;101669.69;5076265;28;61384;-61
2021/11/10 04:46:32;;;;;;;;;43.00;35.50;;;;;3.76;65.53;101673.19;5075408;27;45661;-61
2021/11/10 04:48:58;;;;;;;;;54.00;40.25;;;;;3.72;65.50;101678.50;5075219;27;45829;-60
2021/11/10 04:51:24;;;;;;;;;47.00;38.50;;;;;3.70;65.26;101690.75;5075535;28;45383;-61
2021/11/10 04:53:50;;;;;;;;;47.00;36.75;;;;;3.67;65.60;101679.63;5075413;28;45260;-61
2021/11/10 04:56:16;;;;;;;;;50.75;39.00;;;;;3.63;65.22;101686.72;5076380;28;45919;-60
2021/11/10 04:58:42;;;;;;;;;36.25;32.50;;;;;3.58;65.70;101675.66;5076492;28;45410;-61
2021/11/10 05:04:05;;;;;;;;;42.00;34.75;;;;;3.50;65.81;101613.56;5041962;28;45469;-61
2021/11/10 05:06:31;;;;;;;;;46.75;36.75;;;;;3.48;65.84;101622.38;5076156;28;46401;-61
2021/11/10 05:08:56;;;;;;;;;44.00;36.50;;;;;3.46;66.22;101608.59;5076381;28;45350;-61
2021/11/10 05:11:21;;;;;;;;;49.25;37.25;;;;;3.45;65.93;101602.53;5076365;28;45354;-61
2021/11/10 05:13:47;;;;;;;;;49.00;35.75;;;;;3.41;65.70;101595.81;5075163;28;45425;-61
2021/11/10 05:16:12;;;;;;;;;45.50;39.00;;;;;3.40;66.26;101594.94;5076144;28;46346;-61
2021/11/10 05:18:38;;;;;;;;;48.00;40.00;;;;;3.39;66.44;101595.84;5076186;27;49630;-61
2021/11/10 05:21:03;;;;;;;;;58.50;42.00;;;;;3.37;66.89;101602.84;5079011;28;66432;-61
2021/11/10 05:23:28;;;;;;;;;50.50;41.00;;;;;3.32;67.26;101602.19;5079064;28;64669;-62
2021/11/10 05:25:54;;;;;;;;;43.50;36.50;;;;;3.31;67.59;101607.47;5077563;28;45622;-61
2021/11/10 05:28:19;;;;;;;;;49.25;39.00;;;;;3.30;67.72;101588.44;5078752;27;67247;-61
2021/11/10 05:30:45;;;;;;;;;45.75;38.25;;;;;3.29;67.84;101575.50;5078877;28;61690;-61
2021/11/10 05:33:10;;;;;;;;;46.75;39.00;;;;;3.27;67.77;101562.56;5078974;28;60686;-61
2021/11/10 05:35:35;;;;;;;;;58.00;40.50;;;;;3.29;67.77;101560.75;5079463;28;45323;-62
2021/11/10 05:38:01;;;;;;;;;47.25;39.25;;;;;3.31;67.63;101560.72;5078473;27;66743;-61
2021/11/10 05:40:26;;;;;;;;;52.25;40.25;;;;;3.30;67.75;101559.84;5078718;28;61549;-61
2021/11/10 05:42:52;;;;;;;;;49.25;41.00;;;;;3.29;67.83;101555.56;5077442;28;67529;-62
2021/11/10 05:45:17;;;;;;;;;44.50;39.75;;;;;3.30;68.13;101574.59;5078390;27;71343;-61
2021/11/10 05:47:42;;;;;;;;;42.75;38.00;;;;;3.31;68.13;101577.13;5078964;28;54118;-61
2021/11/10 05:50:08;;;;;;;;;48.25;38.00;;;;;3.31;68.33;101578.91;5079515;27;45284;-61
2021/11/10 05:52:34;;;;;;;;;44.00;38.75;;;;;3.33;68.57;101583.09;5079491;27;45622;-61
2021/11/10 05:55:00;;;;;;;;;46.00;36.25;;;;;3.33;68.73;101579.69;5079167;28;46183;-61
2021/11/10 05:57:25;;;;;;;;;44.50;38.00;;;;;3.34;68.63;101594.34;5078656;27;59226;-61
2021/11/10 05:59:50;;;;;;;;;43.25;37.50;;;;;3.34;68.43;101610.78;5078198;27;45570;-61
2021/11/10 06:02:19;;;;;;;;;54.00;40.00;;;;;3.35;68.08;101615.06;5078323;27;62807;-61
2021/11/10 06:04:45;;;;;;;;;46.25;36.25;;;;;3.36;68.30;101621.13;5079031;28;46561;-61
2021/11/10 06:07:10;;;;;;;;;46.00;38.00;;;;;3.35;67.97;101628.06;5060928;28;45374;-60
2021/11/10 06:09:36;;;;;;;;;55.75;40.75;;;;;3.34;67.65;101631.56;5078844;27;51869;-61
2021/11/10 06:12:01;;;;;;;;;49.50;37.50;;;;;3.31;67.63;101634.28;5060971;28;45514;-61
2021/11/10 06:14:26;;;;;;;;;47.25;39.50;;;;;3.32;67.36;101641.16;5078759;28;46076;-61
2021/11/10 06:16:52;;;;;;;;;53.50;40.50;;;;;3.32;67.27;101656.75;5078700;28;45190;-61
2021/11/10 06:19:17;;;;;;;;;57.25;40.25;;;;;3.33;67.34;101661.03;5077687;27;69583;-60
2021/11/10 06:21:45;;;;;;;;;49.25;39.75;;;;;3.33;67.23;101674.03;5077968;27;61928;-61
2021/11/10 06:24:10;;;;;;;;;45.25;37.25;;;;;3.34;67.16;101672.28;5078563;28;45394;-61
2021/11/10 06:26:35;;;;;;;;;58.00;44.25;;;;;3.33;66.98;101675.78;5078242;28;45333;-61
2021/11/10 06:29:01;;;;;;;;;54.00;40.00;;;;;3.32;66.86;101680.13;5077571;27;63678;-61
2021/11/10 06:31:26;;;;;;;;;50.50;40.00;;;;;3.33;66.85;101681.81;5076415;27;62333;-61
2021/11/10 06:33:52;;;;;;;;;50.00;41.75;;;;;3.34;66.96;101678.31;5078060;27;46320;-61
2021/11/10 06:36:17;;;;;;;;;52.00;40.25;;;;;3.32;66.63;101680.13;5078164;27;45399;-62
2021/11/10 06:38:44;;;;;;;;;50.25;39.50;;;;;3.33;66.70;101675.78;5077829;28;59086;-61
2021/11/10 06:41:10;;;;;;;;;52.50;39.75;;;;;3.36;66.43;101686.06;5078295;28;45370;-61
2021/11/10 06:43:36;;;;;;;;;48.75;40.25;;;;;3.34;66.23;101688.72;5078192;27;46524;-61
2021/11/10 06:46:01;;;;;;;;;48.25;40.00;;;;;3.32;66.19;101695.72;5077630;27;58998;-61
2021/11/10 06:48:27;;;;;;;;;57.00;42.00;;;;;3.28;66.43;101709.72;5078478;28;45422;-61
2021/11/10 06:50:52;;;;;;;;;57.75;41.75;;;;;3.25;66.42;101717.63;5078151;28;45490;-61
2021/11/10 06:53:18;;;;;;;;;51.25;41.25;;;;;3.20;66.55;101717.81;5077749;28;45442;-60
2021/11/10 06:55:43;;;;;;;;;55.50;40.50;;;;;3.16;66.65;101720.63;5077387;28;63975;-61
2021/11/10 06:58:08;;;;;;;;;52.00;43.25;;;;;3.15;66.82;101739.69;5077442;28;62611;-61
2021/11/10 07:00:34;;;;;;;;;44.25;38.75;;;;;3.15;66.90;101744.88;5075784;28;65223;-60
2021/11/10 07:02:59;;;;;;;;;55.00;40.00;;;;;3.14;66.73;101745.78;5076764;27;73603;-61
2021/11/10 07:05:25;;;;;;;;;52.75;39.75;;;;;3.14;66.56;101738.00;5077953;28;45331;-61
2021/11/10 07:07:50;;;;;;;;;56.00;44.00;;;;;3.12;66.48;101748.44;5077911;27;45322;-60
2021/11/10 07:10:15;;;;;;;;;59.00;41.50;;;;;3.12;67.05;101751.03;5077710;28;45489;-60
2021/11/10 07:12:41;;;;;;;;;60.50;46.25;;;;;3.11;66.79;101739.81;5077802;28;45968;-61
2021/11/10 07:15:07;;;;;;;;;53.50;44.50;;;;;3.11;66.69;101738.94;5077740;28;45716;-61
2021/11/10 07:17:33;;;;;;;;;53.25;41.50;;;;;3.13;67.05;101725.91;5077671;27;45303;-61
2021/11/10 07:19:58;;;;;;;;;51.75;44.25;;;;;3.14;66.81;101720.66;5077847;28;45645;-61
2021/11/10 07:22:24;;;;;;;;;59.00;44.00;;;;;3.15;66.77;101713.72;5076659;28;73670;-61
2021/11/10 07:24:49;;;;;;;;;61.50;47.25;;;;;3.16;67.13;101711.06;5076736;27;45345;-60
2021/11/10 07:27:14;;;;;;;;;65.50;47.50;;;;;3.16;67.00;101711.06;5077468;28;45670;-61
2021/11/10 07:29:40;;;;;;;;;63.50;49.00;;;;;3.15;67.17;101706.75;5077383;28;46839;-61
2021/11/10 07:32:06;;;;;;;;;65.75;48.25;;;;;3.14;67.55;101707.66;5076232;27;47608;-61
2021/11/10 07:34:31;;;;;;;;;65.75;51.00;;;;;3.10;67.51;101693.97;5076236;27;45394;-61
2021/11/10 07:36:56;;;;;;;;;77.50;55.50;;;;;3.09;67.42;101702.66;5077261;27;45706;-61
2021/11/10 07:39:22;;;;;;;;;76.75;59.50;;;;;3.10;67.31;101696.56;5076878;28;50841;-61
2021/11/10 07:41:49;;;;;;;;;78.50;59.75;;;;;3.09;67.21;101694.88;5076525;28;46267;-61
2021/11/10 07:44:15;;;;;;;;;67.50;49.25;;;;;3.06;67.60;101700.19;5076056;28;45371;-61
2021/11/10 07:46:51;;;;;;;;;70.00;51.00;;;;;3.03;67.61;101700.31;5077303;28;45339;-61
2021/11/10 07:49:20;;;;;;;;;86.25;61.50;;;;;3.02;67.56;101689.94;5076336;28;45359;-61
2021/11/10 07:51:46;;;;;;;;;83.75;63.50;;;;;3.01;67.91;101686.53;5077084;28;45405;-61
2021/11/10 07:54:11;;;;;;;;;81.00;60.00;;;;;2.99;67.64;101698.72;5075911;28;45386;-61
2021/11/10 07:56:37;;;;;;;;;66.75;50.25;;;;;2.99;68.01;101690.94;5077237;28;45564;-61
2021/11/10 07:59:02;;;;;;;;;68.75;52.50;;;;;3.00;67.85;101695.22;5076510;28;61934;-61
2021/11/10 08:01:28;;;;;;;;;67.50;48.00;;;;;3.00;68.23;101691.75;5076197;28;69288;-61
2021/11/10 08:03:53;;;;;;;;;65.75;51.25;;;;;3.02;68.60;101700.34;5077137;27;45374;-61
2021/11/10 08:06:19;;;;;;;;;69.00;51.00;;;;;3.06;68.24;101707.13;5077130;28;45236;-61
2021/11/10 08:08:44;;;;;;;;;71.25;52.75;;;;;3.07;68.84;101714.88;5076841;28;45506;-61
2021/11/10 08:11:09;;;;;;;;;73.00;55.00;;;;;3.11;68.54;101713.84;5076308;28;58471;-60
2021/11/10 08:13:35;;;;;;;;;83.50;63.00;;;;;3.16;68.66;101720.63;5075967;28;65542;-61
2021/11/10 08:16:00;;;;;;;;;76.75;57.25;;;;;3.21;68.56;101723.84;5076884;28;45597;-61
2021/11/10 08:18:26;;;;;;;;;73.00;56.25;;;;;3.27;68.36;101728.81;5075641;28;45360;-60
2021/11/10 08:20:52;;;;;;;;;81.50;59.00;;;;;3.31;68.79;101729.56;5076724;28;46029;-61
2021/11/10 08:23:21;;;;;;;;;71.50;55.50;;;;;3.36;68.73;101731.06;5076486;28;45395;-61
2021/11/10 08:25:50;;;;;;;;;87.50;63.00;;;;;3.42;68.93;101743.00;5076521;27;46859;-61
2021/11/10 08:28:16;;;;;;;;;85.50;61.00;;;;;3.48;68.66;101747.09;5076804;28;45647;-61
2021/11/10 08:30:41;;;;;;;;;81.25;62.00;;;;;3.53;68.68;101742.56;5076684;28;45467;-61
2021/11/10 08:33:07;;;;;;;;;66.50;53.00;;;;;3.61;68.95;101734.44;5075257;28;45549;-60
2021/11/10 08:35:32;;;;;;;;;66.25;52.00;;;;;3.67;68.76;101729.88;5074863;27;45742;-61
2021/11/10 08:37:57;;;;;;;;;68.25;52.50;;;;;3.76;68.72;101738.19;5073508;28;65700;-61
2021/11/10 08:40:23;;;;;;;;;66.50;51.75;;;;;3.84;68.73;101728.31;5073939;28;47662;-61
2021/11/10 08:42:49;;;;;;;;;68.50;52.75;;;;;3.93;68.57;101737.50;5056837;28;46369;-61
2021/11/10 08:45:17;;;;;;;;;68.25;53.25;;;;;4.01;68.58;101745.81;5074999;28;45493;-61
2021/11/10 08:47:42;;;;;;;;;73.75;56.00;;;;;4.15;68.35;101740.06;5074945;28;45497;-61
2021/11/10 08:50:08;;;;;;;;;71.75;54.75;;;;;4.28;68.34;101736.00;5075059;28;45505;-60
2021/11/10 08:52:35;;;;;;;;;76.25;58.25;;;;;4.47;67.82;101740.44;5070199;27;45488;-61
2021/11/10 08:55:00;;;;;;;;;76.25;56.25;;;;;4.68;67.50;101743.03;5079799;28;45411;-61
2021/11/10 08:57:26;;;;;;;;;72.00;56.50;;;;;4.90;67.53;101735.09;5063009;28;61963;-61
2021/11/10 08:59:51;;;;;;;;;72.75;55.00;;;;;5.12;66.90;101729.75;5081727;28;46218;-62
2021/11/10 09:02:17;;;;;;;;;75.75;54.75;;;;;5.35;66.78;101727.78;5081321;27;65150;-61
2021/11/10 09:04:42;;;;;;;;;78.75;56.50;;;;;5.57;66.09;101737.22;5080721;27;63105;-60
2021/11/10 09:07:08;;;;;;;;;74.25;55.50;;;;;5.77;65.92;101741.47;5081683;27;45469;-61
2021/11/10 09:09:34;;;;;;;;;77.75;60.25;;;;;6.00;65.47;101736.88;5079717;27;46191;-61
2021/11/10 09:11:59;;;;;;;;;77.25;59.00;;;;;6.21;65.15;101738.44;5079514;28;45320;-61
2021/11/10 09:14:25;;;;;;;;;74.25;58.00;;;;;6.45;64.58;101735.50;5080131;27;45477;-61
2021/11/10 09:16:50;;;;;;;;;79.50;60.75;;;;;6.70;63.91;101730.75;5079369;27;62274;-61
2021/11/10 09:19:16;;;;;;;;;79.50;58.00;;;;;6.93;63.41;101738.19;5078027;27;48507;-61
2021/11/10 09:21:41;;;;;;;;;81.00;60.25;;;;;7.16;62.96;101745.72;5080440;27;45400;-62
2021/11/10 09:24:07;;;;;;;;;82.50;63.50;;;;;7.37;62.37;101741.09;5079911;27;45311;-61
2021/11/10 09:26:33;;;;;;;;;82.00;61.25;;;;;7.54;61.90;101738.34;5079889;28;45539;-61
2021/11/10 09:28:58;;;;;;;;;77.50;58.75;;;;;7.74;61.54;101728.53;5080291;28;46206;-61
2021/11/10 09:31:24;;;;;;;;;77.00;58.25;;;;;7.94;61.17;101723.94;5080322;28;45391;-61
2021/11/10 09:33:52;;;;;;;;;80.25;58.50;;;;;8.13;60.96;101718.47;5079755;28;45372;-61
2021/11/10 09:36:17;;;;;;;;;76.75;55.75;;;;;8.29;60.23;101713.97;5045390;27;45733;-62
2021/11/10 09:38:43;;;;;;;;;78.25;59.25;;;;;8.43;59.95;101714.94;5080062;27;66716;-61
2021/11/10 09:41:08;;;;;;;;;77.25;58.00;;;;;8.59;59.36;101715.72;5080468;27;45469;-62
2021/11/10 09:43:36;;;;;;;;;73.25;55.00;;;;;8.73;59.17;101717.47;5079669;28;45592;-61
2021/11/10 09:46:01;;;;;;;;;70.50;53.25;;;;;8.89;58.76;101708.69;5079891;28;45467;-61
2021/11/10 09:48:27;;;;;;;;;65.75;52.25;;;;;9.01;58.65;101707.88;5080423;28;45435;-62
2021/11/10 09:50:53;;;;;;;;;75.00;54.25;;;;;9.18;58.26;101717.31;5079514;27;65067;-62
2021/11/10 09:53:18;;;;;;;;;67.50;52.00;;;;;9.35;58.19;101723.25;5080518;27;45663;-61
2021/11/10 09:55:44;;;;;;;;;56.25;42.50;;;;;9.54;57.62;101730.75;5078382;28;45595;-61
2021/11/10 09:58:09;;;;;;;;;59.50;48.50;;;;;9.70;57.01;101730.63;5079892;27;52389;-62
2021/11/10 10:00:47;;;;;;;;;67.50;51.25;;;;;9.86;56.64;101737.47;5079099;28;45516;-61
2021/11/10 10:03:13;;;;;;;;;70.50;52.25;;;;;10.02;56.56;101740.75;5079343;27;45502;-62
2021/11/10 10:05:38;;;;;;;;;63.75;49.50;;;;;10.14;56.19;101741.72;5077973;27;45500;-61
2021/11/10 10:08:04;;;;;;;;;63.50;49.50;;;;;10.29;56.16;101750.38;5075700;28;46132;-62
2021/11/10 10:10:30;;;;;;;;;60.25;46.00;;;;;10.43;55.55;101752.06;5076930;27;45559;-62
2021/11/10 10:12:56;;;;;;;;;68.50;50.00;;;;;10.58;55.34;101754.59;5077014;27;45870;-61
2021/11/10 10:15:22;;;;;;;;;58.00;44.25;;;;;10.72;54.67;101757.09;5076181;27;45474;-62
2021/11/10 10:17:48;;;;;;;;;58.75;45.75;;;;;10.87;54.84;101759.59;5076832;28;45461;-61
2021/11/10 10:20:23;;;;;;;;;57.50;46.00;;;;;11.02;54.41;101760.31;5075674;28;45502;-61
2021/11/10 10:22:48;;;;;;;;;62.50;49.25;;;;;11.17;53.74;101761.00;5077218;27;45519;-61
2021/11/10 10:25:14;;;;;;;;;57.25;46.00;;;;;11.30;53.66;101761.81;5076392;27;45636;-62
2021/11/10 10:27:39;;;;;;;;;60.25;48.25;;;;;11.43;53.48;101778.41;5075704;28;45462;-62
2021/11/10 10:30:28;;;;;;;;;53.25;42.00;;;;;11.56;53.46;101780.16;5057514;28;73379;-62
2021/11/10 10:33:17;;;;;;;;;57.25;44.50;;;;;11.68;53.07;101763.44;5074065;28;45291;-61
2021/11/10 10:36:09;;;;;;;;;54.50;43.50;;;;;11.75;52.81;101744.53;5075970;28;47937;-61
2021/11/10 10:38:43;;;;;;;;;62.00;46.25;;;;;11.76;52.28;101749.72;5075790;28;46348;-62
2021/11/10 10:41:09;;;;;;;;;54.25;44.00;;;;;11.71;52.56;101733.41;5076833;27;45305;-62
2021/11/10 10:43:46;;;;;;;;;57.50;46.00;;;;;11.60;52.44;101722.84;5076935;27;45383;-62
2021/11/10 10:46:12;;;;;;;;;61.00;47.00;;;;;11.47;52.38;101715.84;5075944;28;45212;-62
2021/11/10 10:48:37;;;;;;;;;59.00;48.25;;;;;11.34;52.46;101721.16;5075277;28;45280;-61
2021/11/10 10:51:04;;;;;;;;;56.25;45.25;;;;;11.21;52.72;101725.63;5076210;27;50445;-62
2021/11/10 10:53:46;;;;;;;;;64.75;48.50;;;;;11.06;53.42;101709.16;5076664;28;45706;-62
2021/11/10 10:56:26;;;;;;;;;58.50;46.50;;;;;10.91;53.52;101708.47;5075073;27;45360;-61
2021/11/10 10:59:11;;;;;;;;;63.75;49.00;;;;;10.76;54.07;101720.94;5075828;28;46772;-61
2021/11/10 11:01:41;;;;;;;;;65.25;51.25;;;;;10.58;54.67;101707.28;5074274;28;45316;-62
2021/11/10 11:04:12;;;;;;;;;65.25;48.25;;;;;10.42;54.91;101703.09;5075472;28;45456;-61
2021/11/10 11:06:39;;;;;;;;;63.25;49.00;;;;;10.29;55.03;101695.19;5074376;28;45557;-61
2021/11/10 11:09:17;;;;;;;;;67.50;50.50;;;;;10.19;55.41;101697.59;5073642;27;45509;-61
2021/11/10 11:11:57;;;;;;;;;61.25;48.75;;;;;10.13;56.09;101697.19;5073653;28;45489;-62
2021/11/10 11:14:37;;;;;;;;;62.50;50.50;;;;;10.08;56.01;101700.97;5074351;27;45493;-61
2021/11/10 11:17:23;;;;;;;;;69.00;53.50;;;;;10.04;56.35;101698.66;5073891;27;45364;-62